sensor_id;sensor_type;location;lat;lon;timestamp;temperature;humidity
79026;DHT22;74892;44.760;37.726;2024-02-16T00:00:42;6.15;76.31
79026;DHT22;74892;44.760;37.726;2024-02-16T00:02:04;6.13;76.15
79026;DHT22;74892;44.760;37.726;2024-02-16T00:03:08;6.17;76.08
79026;DHT22;74892;44.760;37.726;2024-02-16T00:04:13;6.13;76.01
79026;DHT22;74892;44.760;37.726;2024-02-16T00:05:26;6.13;75.88
79026;DHT22;74892;44.760;37.726;2024-02-16T00:06:44;6.06;76.12
79026;DHT22;74892;44.760;37.726;2024-02-16T00:07:50;6.08;76.24
79026;DHT22;74892;44.760;37.726;2024-02-16T00:09:00;6.08;76.05
79026;DHT22;74892;44.760;37.726;2024-02-16T00:10:06;6.07;76.10
79026;DHT22;74892;44.760;37.726;2024-02-16T00:11:17;6.06;76.05
79026;DHT22;74892;44.760;37.726;2024-02-16T00:12:52;6.02;76.06
79026;DHT22;74892;44.760;37.726;2024-02-16T00:14:00;6.00;76.11
79026;DHT22;74892;44.760;37.726;2024-02-16T00:15:07;5.99;76.00
79026;DHT22;74892;44.760;37.726;2024-02-16T00:16:15;5.96;76.28
79026;DHT22;74892;44.760;37.726;2024-02-16T00:17:26;5.96;76.15
79026;DHT22;74892;44.760;37.726;2024-02-16T00:18:32;5.94;76.33
79026;DHT22;74892;44.760;37.726;2024-02-16T00:19:34;5.94;76.43
79026;DHT22;74892;44.760;37.726;2024-02-16T00:20:39;5.98;76.23
79026;DHT22;74892;44.760;37.726;2024-02-16T00:21:47;5.95;76.29
79026;DHT22;74892;44.760;37.726;2024-02-16T00:22:58;5.94;76.29
79026;DHT22;74892;44.760;37.726;2024-02-16T00:24:08;5.96;76.41
79026;DHT22;74892;44.760;37.726;2024-02-16T00:25:12;5.94;76.26
79026;DHT22;74892;44.760;37.726;2024-02-16T00:26:33;5.94;76.32
79026;DHT22;74892;44.760;37.726;2024-02-16T00:27:38;5.93;76.43
79026;DHT22;74892;44.760;37.726;2024-02-16T00:28:40;5.94;76.12
79026;DHT22;74892;44.760;37.726;2024-02-16T00:29:51;5.97;76.24
79026;DHT22;74892;44.760;37.726;2024-02-16T00:31:08;5.94;76.08
79026;DHT22;74892;44.760;37.726;2024-02-16T00:32:22;5.93;76.23
79026;DHT22;74892;44.760;37.726;2024-02-16T00:33:34;5.93;76.28
79026;DHT22;74892;44.760;37.726;2024-02-16T00:34:43;5.98;76.15
79026;DHT22;74892;44.760;37.726;2024-02-16T00:35:58;5.96;76.02
79026;DHT22;74892;44.760;37.726;2024-02-16T00:37:13;5.94;76.14
79026;DHT22;74892;44.760;37.726;2024-02-16T00:38:27;5.95;76.20
79026;DHT22;74892;44.760;37.726;2024-02-16T00:39:50;5.95;76.03
79026;DHT22;74892;44.760;37.726;2024-02-16T00:41:07;5.90;76.30
79026;DHT22;74892;44.760;37.726;2024-02-16T00:42:09;5.87;76.34
79026;DHT22;74892;44.760;37.726;2024-02-16T00:43:27;5.87;76.24
79026;DHT22;74892;44.760;37.726;2024-02-16T00:44:31;5.91;76.31
79026;DHT22;74892;44.760;37.726;2024-02-16T00:45:54;5.89;76.28
79026;DHT22;74892;44.760;37.726;2024-02-16T00:47:03;5.87;76.45
79026;DHT22;74892;44.760;37.726;2024-02-16T00:48:26;5.89;76.10
79026;DHT22;74892;44.760;37.726;2024-02-16T00:49:33;5.91;76.14
79026;DHT22;74892;44.760;37.726;2024-02-16T00:50:40;5.93;75.51
79026;DHT22;74892;44.760;37.726;2024-02-16T00:51:44;5.89;75.60
79026;DHT22;74892;44.760;37.726;2024-02-16T00:52:48;5.90;75.57
79026;DHT22;74892;44.760;37.726;2024-02-16T00:54:01;5.91;75.61
79026;DHT22;74892;44.760;37.726;2024-02-16T00:55:07;5.91;75.63
79026;DHT22;74892;44.760;37.726;2024-02-16T00:56:15;5.93;75.67
79026;DHT22;74892;44.760;37.726;2024-02-16T00:57:29;5.91;75.47
79026;DHT22;74892;44.760;37.726;2024-02-16T00:58:34;5.90;75.43
79026;DHT22;74892;44.760;37.726;2024-02-16T00:59:40;5.89;75.49
79026;DHT22;74892;44.760;37.726;2024-02-16T01:00:48;5.87;75.54
79026;DHT22;74892;44.760;37.726;2024-02-16T01:01:53;5.90;75.25
79026;DHT22;74892;44.760;37.726;2024-02-16T01:03:07;5.92;75.38
79026;DHT22;74892;44.760;37.726;2024-02-16T01:04:23;5.89;75.44
79026;DHT22;74892;44.760;37.726;2024-02-16T01:10:46;5.80;75.44
79026;DHT22;74892;44.760;37.726;2024-02-16T01:12:14;5.80;75.41
79026;DHT22;74892;44.760;37.726;2024-02-16T01:13:26;5.80;75.44
79026;DHT22;74892;44.760;37.726;2024-02-16T01:14:43;5.80;75.50
79026;DHT22;74892;44.760;37.726;2024-02-16T01:16:05;5.84;75.28
79026;DHT22;74892;44.760;37.726;2024-02-16T01:17:28;5.81;75.30
79026;DHT22;74892;44.760;37.726;2024-02-16T01:18:34;5.85;75.03
79026;DHT22;74892;44.760;37.726;2024-02-16T01:19:44;5.90;74.66
79026;DHT22;74892;44.760;37.726;2024-02-16T01:21:01;5.83;74.37
79026;DHT22;74892;44.760;37.726;2024-02-16T01:22:14;5.83;74.51
79026;DHT22;74892;44.760;37.726;2024-02-16T01:23:24;5.89;74.36
79026;DHT22;74892;44.760;37.726;2024-02-16T01:24:39;5.87;74.29
79026;DHT22;74892;44.760;37.726;2024-02-16T01:26:17;5.84;74.33
79026;DHT22;74892;44.760;37.726;2024-02-16T01:27:29;5.84;74.28
79026;DHT22;74892;44.760;37.726;2024-02-16T01:28:37;5.82;74.16
79026;DHT22;74892;44.760;37.726;2024-02-16T01:29:45;5.85;74.20
79026;DHT22;74892;44.760;37.726;2024-02-16T01:30:56;5.84;74.21
79026;DHT22;74892;44.760;37.726;2024-02-16T01:32:07;5.87;74.23
79026;DHT22;74892;44.760;37.726;2024-02-16T01:33:37;5.90;74.07
79026;DHT22;74892;44.760;37.726;2024-02-16T01:34:48;5.85;74.20
79026;DHT22;74892;44.760;37.726;2024-02-16T01:35:57;5.83;74.12
79026;DHT22;74892;44.760;37.726;2024-02-16T01:37:06;5.84;74.21
79026;DHT22;74892;44.760;37.726;2024-02-16T01:38:33;5.87;74.12
79026;DHT22;74892;44.760;37.726;2024-02-16T01:39:44;5.86;74.03
79026;DHT22;74892;44.760;37.726;2024-02-16T01:41:04;5.86;74.16
79026;DHT22;74892;44.760;37.726;2024-02-16T01:42:12;5.82;74.19
79026;DHT22;74892;44.760;37.726;2024-02-16T01:43:32;5.83;74.18
79026;DHT22;74892;44.760;37.726;2024-02-16T01:44:43;5.87;74.91
79026;DHT22;74892;44.760;37.726;2024-02-16T01:45:55;5.85;73.98
79026;DHT22;74892;44.760;37.726;2024-02-16T01:47:21;5.86;73.99
79026;DHT22;74892;44.760;37.726;2024-02-16T01:48:24;5.83;73.98
79026;DHT22;74892;44.760;37.726;2024-02-16T01:49:39;5.89;73.84
79026;DHT22;74892;44.760;37.726;2024-02-16T01:50:50;5.87;73.82
79026;DHT22;74892;44.760;37.726;2024-02-16T01:51:57;5.87;73.74
79026;DHT22;74892;44.760;37.726;2024-02-16T01:53:18;5.87;73.71
79026;DHT22;74892;44.760;37.726;2024-02-16T01:54:49;5.81;73.57
79026;DHT22;74892;44.760;37.726;2024-02-16T01:55:58;5.83;73.77
79026;DHT22;74892;44.760;37.726;2024-02-16T01:57:05;5.83;73.85
79026;DHT22;74892;44.760;37.726;2024-02-16T01:58:22;5.83;73.56
79026;DHT22;74892;44.760;37.726;2024-02-16T01:59:29;5.83;73.70
79026;DHT22;74892;44.760;37.726;2024-02-16T02:00:46;5.83;73.59
79026;DHT22;74892;44.760;37.726;2024-02-16T02:02:00;5.81;73.66
79026;DHT22;74892;44.760;37.726;2024-02-16T02:03:08;5.83;73.69
79026;DHT22;74892;44.760;37.726;2024-02-16T02:04:46;5.87;73.49
79026;DHT22;74892;44.760;37.726;2024-02-16T02:05:54;5.84;73.56
79026;DHT22;74892;44.760;37.726;2024-02-16T02:07:18;5.87;73.67
79026;DHT22;74892;44.760;37.726;2024-02-16T02:08:35;5.83;73.64
79026;DHT22;74892;44.760;37.726;2024-02-16T02:09:44;5.85;73.66
79026;DHT22;74892;44.760;37.726;2024-02-16T02:10:57;5.86;73.35
79026;DHT22;74892;44.760;37.726;2024-02-16T02:12:09;5.85;73.40
79026;DHT22;74892;44.760;37.726;2024-02-16T02:13:12;5.85;73.32
79026;DHT22;74892;44.760;37.726;2024-02-16T02:14:22;5.86;73.26
79026;DHT22;74892;44.760;37.726;2024-02-16T02:15:43;5.90;73.17
79026;DHT22;74892;44.760;37.726;2024-02-16T02:16:50;5.89;73.22
79026;DHT22;74892;44.760;37.726;2024-02-16T02:17:57;5.90;72.95
79026;DHT22;74892;44.760;37.726;2024-02-16T02:19:17;5.89;73.13
79026;DHT22;74892;44.760;37.726;2024-02-16T02:20:26;5.87;73.09
79026;DHT22;74892;44.760;37.726;2024-02-16T02:21:37;5.89;73.17
79026;DHT22;74892;44.760;37.726;2024-02-16T02:22:42;5.90;72.96
79026;DHT22;74892;44.760;37.726;2024-02-16T02:23:44;5.92;72.89
79026;DHT22;74892;44.760;37.726;2024-02-16T02:24:57;5.89;72.68
79026;DHT22;74892;44.760;37.726;2024-02-16T02:26:17;5.91;72.62
79026;DHT22;74892;44.760;37.726;2024-02-16T02:27:24;5.89;72.67
79026;DHT22;74892;44.760;37.726;2024-02-16T02:28:36;5.89;72.70
79026;DHT22;74892;44.760;37.726;2024-02-16T02:29:56;5.86;72.74
79026;DHT22;74892;44.760;37.726;2024-02-16T02:31:05;5.90;72.88
79026;DHT22;74892;44.760;37.726;2024-02-16T02:32:15;5.94;72.67
79026;DHT22;74892;44.760;37.726;2024-02-16T02:33:46;5.90;72.77
79026;DHT22;74892;44.760;37.726;2024-02-16T02:34:54;5.92;72.68
79026;DHT22;74892;44.760;37.726;2024-02-16T02:35:57;5.91;72.65
79026;DHT22;74892;44.760;37.726;2024-02-16T02:37:03;5.95;72.35
79026;DHT22;74892;44.760;37.726;2024-02-16T02:38:11;6.01;72.29
79026;DHT22;74892;44.760;37.726;2024-02-16T02:39:22;5.98;72.13
79026;DHT22;74892;44.760;37.726;2024-02-16T02:40:29;6.00;73.98
79026;DHT22;74892;44.760;37.726;2024-02-16T02:41:43;6.02;72.35
79026;DHT22;74892;44.760;37.726;2024-02-16T02:42:52;5.98;71.83
79026;DHT22;74892;44.760;37.726;2024-02-16T02:44:00;5.94;72.12
79026;DHT22;74892;44.760;37.726;2024-02-16T02:45:15;5.95;72.17
79026;DHT22;74892;44.760;37.726;2024-02-16T02:46:23;5.90;72.13
79026;DHT22;74892;44.760;37.726;2024-02-16T02:47:39;5.90;72.21
79026;DHT22;74892;44.760;37.726;2024-02-16T02:48:45;5.91;72.29
79026;DHT22;74892;44.760;37.726;2024-02-16T02:49:52;5.95;72.25
79026;DHT22;74892;44.760;37.726;2024-02-16T02:51:00;5.96;72.19
79026;DHT22;74892;44.760;37.726;2024-02-16T02:52:13;5.97;72.09
79026;DHT22;74892;44.760;37.726;2024-02-16T02:53:18;5.95;72.29
79026;DHT22;74892;44.760;37.726;2024-02-16T02:54:26;5.93;72.54
79026;DHT22;74892;44.760;37.726;2024-02-16T02:55:28;5.96;72.13
79026;DHT22;74892;44.760;37.726;2024-02-16T02:57:02;5.93;72.24
79026;DHT22;74892;44.760;37.726;2024-02-16T02:58:29;5.90;72.58
79026;DHT22;74892;44.760;37.726;2024-02-16T02:59:34;5.95;72.97
79026;DHT22;74892;44.760;37.726;2024-02-16T03:00:38;5.94;72.76
79026;DHT22;74892;44.760;37.726;2024-02-16T03:01:51;5.93;73.16
79026;DHT22;74892;44.760;37.726;2024-02-16T03:02:59;5.93;72.49
79026;DHT22;74892;44.760;37.726;2024-02-16T03:04:12;5.91;72.70
79026;DHT22;74892;44.760;37.726;2024-02-16T03:05:17;5.89;72.58
79026;DHT22;74892;44.760;37.726;2024-02-16T03:06:26;5.91;72.98
79026;DHT22;74892;44.760;37.726;2024-02-16T03:07:31;5.89;72.67
79026;DHT22;74892;44.760;37.726;2024-02-16T03:08:44;5.94;72.90
79026;DHT22;74892;44.760;37.726;2024-02-16T03:09:46;5.97;72.86
79026;DHT22;74892;44.760;37.726;2024-02-16T03:10:52;5.98;72.83
79026;DHT22;74892;44.760;37.726;2024-02-16T03:11:56;5.98;72.62
79026;DHT22;74892;44.760;37.726;2024-02-16T03:13:02;5.99;72.67
79026;DHT22;74892;44.760;37.726;2024-02-16T03:14:05;5.97;72.70
79026;DHT22;74892;44.760;37.726;2024-02-16T03:15:10;6.00;73.07
79026;DHT22;74892;44.760;37.726;2024-02-16T03:16:15;6.02;73.15
79026;DHT22;74892;44.760;37.726;2024-02-16T03:17:17;5.99;72.77
79026;DHT22;74892;44.760;37.726;2024-02-16T03:18:19;5.99;72.98
79026;DHT22;74892;44.760;37.726;2024-02-16T03:19:34;5.97;72.87
79026;DHT22;74892;44.760;37.726;2024-02-16T03:20:44;5.96;72.67
79026;DHT22;74892;44.760;37.726;2024-02-16T03:21:55;5.95;72.73
79026;DHT22;74892;44.760;37.726;2024-02-16T03:23:02;5.95;72.49
79026;DHT22;74892;44.760;37.726;2024-02-16T03:24:12;5.96;72.50
79026;DHT22;74892;44.760;37.726;2024-02-16T03:25:32;5.92;72.11
79026;DHT22;74892;44.760;37.726;2024-02-16T03:26:50;5.96;72.32
79026;DHT22;74892;44.760;37.726;2024-02-16T03:28:16;5.87;71.91
79026;DHT22;74892;44.760;37.726;2024-02-16T03:29:44;5.84;72.14
79026;DHT22;74892;44.760;37.726;2024-02-16T03:30:58;5.87;72.46
79026;DHT22;74892;44.760;37.726;2024-02-16T03:32:12;5.90;71.67
79026;DHT22;74892;44.760;37.726;2024-02-16T03:33:25;5.91;71.96
79026;DHT22;74892;44.760;37.726;2024-02-16T03:34:31;5.92;71.48
79026;DHT22;74892;44.760;37.726;2024-02-16T03:35:46;5.89;71.40
79026;DHT22;74892;44.760;37.726;2024-02-16T03:37:06;5.89;71.39
79026;DHT22;74892;44.760;37.726;2024-02-16T03:38:35;5.89;71.58
79026;DHT22;74892;44.760;37.726;2024-02-16T03:39:44;5.87;71.58
79026;DHT22;74892;44.760;37.726;2024-02-16T03:41:15;5.87;71.54
79026;DHT22;74892;44.760;37.726;2024-02-16T03:42:53;5.89;71.32
79026;DHT22;74892;44.760;37.726;2024-02-16T03:44:07;5.87;71.71
79026;DHT22;74892;44.760;37.726;2024-02-16T03:45:09;5.86;71.49
79026;DHT22;74892;44.760;37.726;2024-02-16T03:46:14;5.87;71.42
79026;DHT22;74892;44.760;37.726;2024-02-16T03:47:24;5.89;71.08
79026;DHT22;74892;44.760;37.726;2024-02-16T03:48:44;5.85;71.42
79026;DHT22;74892;44.760;37.726;2024-02-16T03:49:48;5.85;71.30
79026;DHT22;74892;44.760;37.726;2024-02-16T03:50:53;5.86;71.40
79026;DHT22;74892;44.760;37.726;2024-02-16T03:51:59;5.85;71.48
79026;DHT22;74892;44.760;37.726;2024-02-16T03:53:11;5.85;70.98
79026;DHT22;74892;44.760;37.726;2024-02-16T03:54:17;5.82;71.23
79026;DHT22;74892;44.760;37.726;2024-02-16T03:55:26;5.82;71.69
79026;DHT22;74892;44.760;37.726;2024-02-16T03:56:30;5.85;71.69
79026;DHT22;74892;44.760;37.726;2024-02-16T03:57:33;5.87;71.37
79026;DHT22;74892;44.760;37.726;2024-02-16T03:58:49;5.87;71.17
79026;DHT22;74892;44.760;37.726;2024-02-16T03:59:59;5.85;71.13
79026;DHT22;74892;44.760;37.726;2024-02-16T04:01:02;5.84;71.25
79026;DHT22;74892;44.760;37.726;2024-02-16T04:02:16;5.84;71.46
79026;DHT22;74892;44.760;37.726;2024-02-16T04:03:44;5.80;71.72
79026;DHT22;74892;44.760;37.726;2024-02-16T04:05:17;5.81;72.10
79026;DHT22;74892;44.760;37.726;2024-02-16T04:06:38;5.86;72.26
79026;DHT22;74892;44.760;37.726;2024-02-16T04:07:59;5.82;72.54
79026;DHT22;74892;44.760;37.726;2024-02-16T04:09:15;5.79;73.48
79026;DHT22;74892;44.760;37.726;2024-02-16T04:10:41;5.75;73.44
79026;DHT22;74892;44.760;37.726;2024-02-16T04:11:47;5.76;73.50
79026;DHT22;74892;44.760;37.726;2024-02-16T04:12:52;5.80;73.42
79026;DHT22;74892;44.760;37.726;2024-02-16T04:13:58;5.75;73.91
79026;DHT22;74892;44.760;37.726;2024-02-16T04:15:00;5.74;74.60
79026;DHT22;74892;44.760;37.726;2024-02-16T04:16:06;5.69;74.52
79026;DHT22;74892;44.760;37.726;2024-02-16T04:17:14;5.63;75.27
79026;DHT22;74892;44.760;37.726;2024-02-16T04:18:21;5.55;75.06
79026;DHT22;74892;44.760;37.726;2024-02-16T04:21:25;5.53;76.12
79026;DHT22;74892;44.760;37.726;2024-02-16T04:24:53;5.55;77.03
79026;DHT22;74892;44.760;37.726;2024-02-16T04:26:11;5.55;76.08
79026;DHT22;74892;44.760;37.726;2024-02-16T04:27:35;5.50;75.85
79026;DHT22;74892;44.760;37.726;2024-02-16T04:28:54;5.46;76.79
79026;DHT22;74892;44.760;37.726;2024-02-16T04:30:00;5.49;76.86
79026;DHT22;74892;44.760;37.726;2024-02-16T04:32:01;5.45;77.29
79026;DHT22;74892;44.760;37.726;2024-02-16T04:33:14;5.43;77.33
79026;DHT22;74892;44.760;37.726;2024-02-16T04:34:19;5.40;77.32
79026;DHT22;74892;44.760;37.726;2024-02-16T04:35:35;5.38;77.66
79026;DHT22;74892;44.760;37.726;2024-02-16T04:36:57;5.40;77.91
79026;DHT22;74892;44.760;37.726;2024-02-16T04:38:25;5.37;77.78
79026;DHT22;74892;44.760;37.726;2024-02-16T04:40:22;5.37;77.76
79026;DHT22;74892;44.760;37.726;2024-02-16T04:42:05;5.35;77.18
79026;DHT22;74892;44.760;37.726;2024-02-16T04:43:07;5.33;77.10
79026;DHT22;74892;44.760;37.726;2024-02-16T04:44:15;5.34;77.31
79026;DHT22;74892;44.760;37.726;2024-02-16T04:45:34;5.35;77.11
79026;DHT22;74892;44.760;37.726;2024-02-16T04:46:37;5.33;77.59
79026;DHT22;74892;44.760;37.726;2024-02-16T04:47:39;5.31;77.68
79026;DHT22;74892;44.760;37.726;2024-02-16T04:48:42;5.31;77.91
79026;DHT22;74892;44.760;37.726;2024-02-16T04:49:52;5.30;77.39
79026;DHT22;74892;44.760;37.726;2024-02-16T04:51:33;5.28;76.47
79026;DHT22;74892;44.760;37.726;2024-02-16T04:56:18;5.34;76.89
79026;DHT22;74892;44.760;37.726;2024-02-16T04:57:40;5.33;76.63
79026;DHT22;74892;44.760;37.726;2024-02-16T04:59:09;5.34;77.21
79026;DHT22;74892;44.760;37.726;2024-02-16T05:00:20;5.38;76.29
79026;DHT22;74892;44.760;37.726;2024-02-16T05:02:02;5.39;75.95
79026;DHT22;74892;44.760;37.726;2024-02-16T05:03:31;5.40;75.62
79026;DHT22;74892;44.760;37.726;2024-02-16T05:04:52;5.41;75.60
79026;DHT22;74892;44.760;37.726;2024-02-16T05:06:12;5.41;75.34
79026;DHT22;74892;44.760;37.726;2024-02-16T05:07:25;5.42;75.43
79026;DHT22;74892;44.760;37.726;2024-02-16T05:09:18;5.42;75.34
79026;DHT22;74892;44.760;37.726;2024-02-16T05:11:05;5.43;74.86
79026;DHT22;74892;44.760;37.726;2024-02-16T05:12:25;5.40;75.17
79026;DHT22;74892;44.760;37.726;2024-02-16T05:13:43;5.42;75.32
79026;DHT22;74892;44.760;37.726;2024-02-16T05:14:49;5.39;75.47
79026;DHT22;74892;44.760;37.726;2024-02-16T05:15:51;5.39;75.29
79026;DHT22;74892;44.760;37.726;2024-02-16T05:17:06;5.40;75.47
79026;DHT22;74892;44.760;37.726;2024-02-16T05:18:08;5.39;75.42
79026;DHT22;74892;44.760;37.726;2024-02-16T05:19:14;5.38;75.69
79026;DHT22;74892;44.760;37.726;2024-02-16T05:20:16;5.37;76.13
79026;DHT22;74892;44.760;37.726;2024-02-16T05:21:22;5.35;76.71
79026;DHT22;74892;44.760;37.726;2024-02-16T05:22:26;5.37;76.70
79026;DHT22;74892;44.760;37.726;2024-02-16T05:23:29;5.34;76.13
79026;DHT22;74892;44.760;37.726;2024-02-16T05:24:37;5.36;76.92
79026;DHT22;74892;44.760;37.726;2024-02-16T05:25:39;5.33;76.53
79026;DHT22;74892;44.760;37.726;2024-02-16T05:26:53;5.33;75.97
79026;DHT22;74892;44.760;37.726;2024-02-16T05:28:01;5.28;76.81
79026;DHT22;74892;44.760;37.726;2024-02-16T05:29:14;5.31;77.20
79026;DHT22;74892;44.760;37.726;2024-02-16T05:30:23;5.31;76.79
79026;DHT22;74892;44.760;37.726;2024-02-16T05:31:26;5.32;77.64
79026;DHT22;74892;44.760;37.726;2024-02-16T05:32:28;5.30;77.60
79026;DHT22;74892;44.760;37.726;2024-02-16T05:33:33;5.32;76.86
79026;DHT22;74892;44.760;37.726;2024-02-16T05:34:38;5.31;77.63
79026;DHT22;74892;44.760;37.726;2024-02-16T05:35:40;5.26;77.07
79026;DHT22;74892;44.760;37.726;2024-02-16T05:36:54;5.28;77.49
79026;DHT22;74892;44.760;37.726;2024-02-16T05:37:58;5.34;77.53
79026;DHT22;74892;44.760;37.726;2024-02-16T05:39:17;5.26;77.34
79026;DHT22;74892;44.760;37.726;2024-02-16T05:40:30;5.27;78.17
79026;DHT22;74892;44.760;37.726;2024-02-16T05:41:44;5.27;78.24
79026;DHT22;74892;44.760;37.726;2024-02-16T05:42:52;5.28;78.70
79026;DHT22;74892;44.760;37.726;2024-02-16T05:43:54;5.26;78.41
79026;DHT22;74892;44.760;37.726;2024-02-16T05:44:56;5.31;77.50
79026;DHT22;74892;44.760;37.726;2024-02-16T05:46:00;5.34;77.58
79026;DHT22;74892;44.760;37.726;2024-02-16T05:47:02;5.35;77.31
79026;DHT22;74892;44.760;37.726;2024-02-16T05:48:07;5.35;76.77
79026;DHT22;74892;44.760;37.726;2024-02-16T05:49:15;5.33;77.19
79026;DHT22;74892;44.760;37.726;2024-02-16T05:50:20;5.33;76.41
79026;DHT22;74892;44.760;37.726;2024-02-16T05:51:22;5.37;77.50
79026;DHT22;74892;44.760;37.726;2024-02-16T05:52:24;5.34;77.11
79026;DHT22;74892;44.760;37.726;2024-02-16T05:53:30;5.35;77.02
79026;DHT22;74892;44.760;37.726;2024-02-16T05:54:32;5.37;77.00
79026;DHT22;74892;44.760;37.726;2024-02-16T05:55:37;5.37;76.35
79026;DHT22;74892;44.760;37.726;2024-02-16T05:56:44;5.35;75.89
79026;DHT22;74892;44.760;37.726;2024-02-16T05:57:46;5.34;76.66
79026;DHT22;74892;44.760;37.726;2024-02-16T05:58:51;5.34;76.82
79026;DHT22;74892;44.760;37.726;2024-02-16T05:59:53;5.39;76.47
79026;DHT22;74892;44.760;37.726;2024-02-16T06:01:08;5.35;77.07
79026;DHT22;74892;44.760;37.726;2024-02-16T06:02:14;5.36;77.01
79026;DHT22;74892;44.760;37.726;2024-02-16T06:03:21;5.38;77.31
79026;DHT22;74892;44.760;37.726;2024-02-16T06:04:23;5.34;77.69
79026;DHT22;74892;44.760;37.726;2024-02-16T06:05:26;5.36;77.78
79026;DHT22;74892;44.760;37.726;2024-02-16T06:06:36;5.33;77.84
79026;DHT22;74892;44.760;37.726;2024-02-16T06:07:41;5.36;78.38
79026;DHT22;74892;44.760;37.726;2024-02-16T06:08:46;5.35;78.19
79026;DHT22;74892;44.760;37.726;2024-02-16T06:09:48;5.37;78.22
79026;DHT22;74892;44.760;37.726;2024-02-16T06:10:52;5.39;78.12
79026;DHT22;74892;44.760;37.726;2024-02-16T06:12:00;5.36;78.05
79026;DHT22;74892;44.760;37.726;2024-02-16T06:13:03;5.35;77.32
79026;DHT22;74892;44.760;37.726;2024-02-16T06:14:05;5.34;77.77
79026;DHT22;74892;44.760;37.726;2024-02-16T06:15:16;5.33;77.31
79026;DHT22;74892;44.760;37.726;2024-02-16T06:16:32;5.39;77.72
79026;DHT22;74892;44.760;37.726;2024-02-16T06:17:42;5.38;77.07
79026;DHT22;74892;44.760;37.726;2024-02-16T06:18:53;5.36;77.59
79026;DHT22;74892;44.760;37.726;2024-02-16T06:19:58;5.33;77.44
79026;DHT22;74892;44.760;37.726;2024-02-16T06:21:04;5.34;77.79
79026;DHT22;74892;44.760;37.726;2024-02-16T06:22:06;5.34;77.45
79026;DHT22;74892;44.760;37.726;2024-02-16T06:23:09;5.37;76.92
79026;DHT22;74892;44.760;37.726;2024-02-16T06:24:12;5.39;76.96
79026;DHT22;74892;44.760;37.726;2024-02-16T06:25:14;5.41;76.60
79026;DHT22;74892;44.760;37.726;2024-02-16T06:26:17;5.40;76.59
79026;DHT22;74892;44.760;37.726;2024-02-16T06:27:21;5.41;76.55
79026;DHT22;74892;44.760;37.726;2024-02-16T06:28:28;5.42;77.11
79026;DHT22;74892;44.760;37.726;2024-02-16T06:29:34;5.43;76.76
79026;DHT22;74892;44.760;37.726;2024-02-16T06:30:36;5.46;76.60
79026;DHT22;74892;44.760;37.726;2024-02-16T06:31:41;5.43;76.34
79026;DHT22;74892;44.760;37.726;2024-02-16T06:32:46;5.45;76.44
79026;DHT22;74892;44.760;37.726;2024-02-16T06:33:49;5.45;76.66
79026;DHT22;74892;44.760;37.726;2024-02-16T06:34:54;5.46;76.83
79026;DHT22;74892;44.760;37.726;2024-02-16T06:35:56;5.51;76.98
79026;DHT22;74892;44.760;37.726;2024-02-16T06:36:58;5.52;77.02
79026;DHT22;74892;44.760;37.726;2024-02-16T06:38:01;5.54;76.15
79026;DHT22;74892;44.760;37.726;2024-02-16T06:39:03;5.53;76.55
79026;DHT22;74892;44.760;37.726;2024-02-16T06:40:08;5.49;75.63
79026;DHT22;74892;44.760;37.726;2024-02-16T06:41:13;5.48;76.13
79026;DHT22;74892;44.760;37.726;2024-02-16T06:42:15;5.48;76.74
79026;DHT22;74892;44.760;37.726;2024-02-16T06:43:19;5.53;75.92
79026;DHT22;74892;44.760;37.726;2024-02-16T06:44:24;5.52;75.55
79026;DHT22;74892;44.760;37.726;2024-02-16T06:45:29;5.54;76.81
79026;DHT22;74892;44.760;37.726;2024-02-16T06:46:33;5.64;76.37
79026;DHT22;74892;44.760;37.726;2024-02-16T06:47:35;5.66;75.67
79026;DHT22;74892;44.760;37.726;2024-02-16T06:48:47;5.66;75.21
79026;DHT22;74892;44.760;37.726;2024-02-16T06:49:52;5.64;76.33
79026;DHT22;74892;44.760;37.726;2024-02-16T06:50:54;5.65;75.99
79026;DHT22;74892;44.760;37.726;2024-02-16T06:51:56;5.60;75.23
79026;DHT22;74892;44.760;37.726;2024-02-16T06:53:03;5.50;75.90
79026;DHT22;74892;44.760;37.726;2024-02-16T06:54:06;5.50;76.78
79026;DHT22;74892;44.760;37.726;2024-02-16T06:55:09;5.48;76.22
79026;DHT22;74892;44.760;37.726;2024-02-16T06:56:13;5.46;76.34
79026;DHT22;74892;44.760;37.726;2024-02-16T06:57:16;5.39;76.10
79026;DHT22;74892;44.760;37.726;2024-02-16T06:58:18;5.37;77.44
79026;DHT22;74892;44.760;37.726;2024-02-16T06:59:23;5.39;77.31
79026;DHT22;74892;44.760;37.726;2024-02-16T07:00:27;5.35;77.15
79026;DHT22;74892;44.760;37.726;2024-02-16T07:01:33;5.33;77.99
79026;DHT22;74892;44.760;37.726;2024-02-16T07:02:40;5.31;78.34
79026;DHT22;74892;44.760;37.726;2024-02-16T07:03:45;5.28;77.88
79026;DHT22;74892;44.760;37.726;2024-02-16T07:04:58;5.23;77.33
79026;DHT22;74892;44.760;37.726;2024-02-16T07:06:01;5.21;77.92
79026;DHT22;74892;44.760;37.726;2024-02-16T07:07:05;5.22;77.31
79026;DHT22;74892;44.760;37.726;2024-02-16T07:08:10;5.27;77.76
79026;DHT22;74892;44.760;37.726;2024-02-16T07:09:12;5.34;77.81
79026;DHT22;74892;44.760;37.726;2024-02-16T07:10:17;5.36;77.33
79026;DHT22;74892;44.760;37.726;2024-02-16T07:11:21;5.35;76.31
79026;DHT22;74892;44.760;37.726;2024-02-16T07:12:24;5.35;76.98
79026;DHT22;74892;44.760;37.726;2024-02-16T07:13:26;5.35;76.89
79026;DHT22;74892;44.760;37.726;2024-02-16T07:14:30;5.31;76.77
79026;DHT22;74892;44.760;37.726;2024-02-16T07:15:32;5.34;76.34
79026;DHT22;74892;44.760;37.726;2024-02-16T07:16:37;5.28;76.41
79026;DHT22;74892;44.760;37.726;2024-02-16T07:17:40;5.24;76.30
79026;DHT22;74892;44.760;37.726;2024-02-16T07:18:42;5.22;76.87
79026;DHT22;74892;44.760;37.726;2024-02-16T07:19:49;5.19;77.18
79026;DHT22;74892;44.760;37.726;2024-02-16T07:20:52;5.21;77.00
79026;DHT22;74892;44.760;37.726;2024-02-16T07:21:56;5.21;77.05
79026;DHT22;74892;44.760;37.726;2024-02-16T07:23:06;5.24;77.27
79026;DHT22;74892;44.760;37.726;2024-02-16T07:24:12;5.32;77.28
79026;DHT22;74892;44.760;37.726;2024-02-16T07:25:17;5.34;76.83
79026;DHT22;74892;44.760;37.726;2024-02-16T07:26:25;5.33;76.10
79026;DHT22;74892;44.760;37.726;2024-02-16T07:27:34;5.33;76.18
79026;DHT22;74892;44.760;37.726;2024-02-16T07:28:39;5.26;76.10
79026;DHT22;74892;44.760;37.726;2024-02-16T07:29:44;5.26;76.24
79026;DHT22;74892;44.760;37.726;2024-02-16T07:30:57;5.23;75.64
79026;DHT22;74892;44.760;37.726;2024-02-16T07:32:01;5.18;76.57
79026;DHT22;74892;44.760;37.726;2024-02-16T07:33:08;5.22;77.08
79026;DHT22;74892;44.760;37.726;2024-02-16T07:34:11;5.23;76.44
79026;DHT22;74892;44.760;37.726;2024-02-16T07:35:15;5.22;75.48
79026;DHT22;74892;44.760;37.726;2024-02-16T07:36:21;5.21;76.08
79026;DHT22;74892;44.760;37.726;2024-02-16T07:37:25;5.21;75.95
79026;DHT22;74892;44.760;37.726;2024-02-16T07:38:30;5.20;75.70